Time;durP1;ratioP1;P1;durP2;ratioP2;P2;SDS_P1;SDS_P2;PMS_P1;PMS_P2;Temp;Humidity;BMP_temperature;BMP_pressure;BME280_temperature;BME280_humidity;BME280_pressure;Samples;Min_cycle;Max_cycle;Signal;HPM_P1;HPM_P2
2024/02/03 00:02:20;;;;;;;21.17;19.27;;;;;;;9.57;100.00;100928.34;5033355;28;20260;-77
2024/02/03 00:04:46;;;;;;;23.73;19.23;;;;;;;9.49;100.00;100936.22;5035347;28;20224;-76
2024/02/03 00:07:12;;;;;;;22.00;19.87;;;;;;;9.40;100.00;100929.34;5034552;28;20274;-77
2024/02/03 00:09:39;;;;;;;24.23;21.83;;;;;;;9.47;100.00;100936.22;5034666;28;20257;-77
2024/02/03 00:12:07;;;;;;;28.20;22.37;;;;;;;9.30;100.00;100938.94;5034615;28;20225;-77
2024/02/03 00:14:35;;;;;;;26.50;21.03;;;;;;;9.56;100.00;100930.09;5035019;28;20222;-77
2024/02/03 00:17:01;;;;;;;25.90;22.30;;;;;;;9.46;100.00;100933.66;5037534;28;20253;-77
2024/02/03 00:19:28;;;;;;;25.60;22.83;;;;;;;9.47;100.00;100917.97;5034308;28;20202;-77
2024/02/03 00:21:54;;;;;;;27.00;23.03;;;;;;;9.49;100.00;100926.69;5034017;28;20263;-77
2024/02/03 00:24:21;;;;;;;28.90;23.53;;;;;;;9.39;100.00;100922.38;5034716;28;20625;-77
2024/02/03 00:26:47;;;;;;;25.33;22.67;;;;;;;9.35;100.00;100915.47;5034502;28;20222;-77
2024/02/03 00:29:13;;;;;;;26.67;22.63;;;;;;;9.54;100.00;100922.28;5034737;28;20203;-77
2024/02/03 00:31:41;;;;;;;32.93;25.20;;;;;;;9.28;100.00;100916.41;5033795;28;20237;-77
2024/02/03 00:34:07;;;;;;;29.93;25.13;;;;;;;9.43;100.00;100900.66;5033872;28;20230;-77
2024/02/03 00:36:34;;;;;;;28.90;24.20;;;;;;;9.49;100.00;100912.78;5034503;28;20648;-76
2024/02/03 00:39:02;;;;;;;32.63;24.27;;;;;;;9.50;100.00;100914.53;5034107;28;20206;-77
2024/02/03 00:41:28;;;;;;;25.53;22.87;;;;;;;9.45;100.00;100918.88;5032539;28;20206;-77
2024/02/03 00:43:55;;;;;;;26.73;23.83;;;;;;;9.60;100.00;100923.13;5014498;28;20261;-76
2024/02/03 00:46:21;;;;;;;29.73;23.27;;;;;;;9.60;100.00;100931.81;5014208;28;20282;-77
2024/02/03 00:48:49;;;;;;;30.90;22.60;;;;;;;9.59;100.00;100924.84;5013713;28;20210;-77
2024/02/03 00:51:15;;;;;;;25.07;21.87;;;;;;;9.66;100.00;100930.91;5029356;28;20616;-77
2024/02/03 00:53:41;;;;;;;25.13;22.43;;;;;;;9.71;100.00;100942.16;5033763;28;20237;-77
2024/02/03 00:56:08;;;;;;;24.57;21.90;;;;;;;9.74;100.00;100943.00;5033650;28;20234;-77
2024/02/03 00:58:35;;;;;;;24.13;21.53;;;;;;;9.71;100.00;100963.91;5026188;28;20653;-76
2024/02/03 01:01:01;;;;;;;24.27;21.90;;;;;;;9.71;100.00;100965.63;5013326;28;20202;-77
2024/02/03 01:03:27;;;;;;;24.83;22.20;;;;;;;9.61;100.00;100974.38;5012861;28;20430;-76
2024/02/03 01:05:55;;;;;;;25.07;22.67;;;;;;;9.78;100.00;100964.72;5013213;28;20701;-77
2024/02/03 01:08:21;;;;;;;29.63;24.77;;;;;;;9.83;100.00;100962.94;5029285;28;20202;-76
2024/02/03 01:10:48;;;;;;;27.77;22.67;;;;;;;9.77;100.00;100962.09;5029167;28;20692;-77
2024/02/03 01:13:15;;;;;;;26.17;23.53;;;;;;;9.74;100.00;100953.44;5032785;28;20225;-77
2024/02/03 01:15:41;;;;;;;26.60;23.60;;;;;;;9.74;100.00;100944.75;5032450;28;20294;-76
2024/02/03 01:18:07;;;;;;;26.97;23.43;;;;;;;9.85;100.00;100961.19;5032447;28;20202;-76
2024/02/03 01:20:34;;;;;;;27.47;22.97;;;;;;;9.82;100.00;100978.59;5031761;28;20240;-76
2024/02/03 01:23:01;;;;;;;29.43;23.83;;;;;;;9.96;100.00;100976.72;5036500;28;20680;-77
2024/02/03 01:25:28;;;;;;;34.03;23.47;;;;;;;9.88;100.00;100978.53;5018257;28;20262;-77
2024/02/03 01:27:54;;;;;;;29.20;23.20;;;;;;;9.73;100.00;100967.34;5012831;28;20681;-76
2024/02/03 01:30:21;;;;;;;29.17;23.57;;;;;;;9.97;100.00;100961.94;5013058;28;20211;-77
2024/02/03 01:32:48;;;;;;;30.47;23.57;;;;;;;9.83;100.00;100951.63;5012297;28;20210;-77
2024/02/03 01:35:15;;;;;;;26.13;23.33;;;;;;;9.98;100.00;100968.91;5012670;28;20325;-76
2024/02/03 01:37:41;;;;;;;26.53;22.87;;;;;;;10.06;100.00;100977.53;5024788;28;20234;-77
2024/02/03 01:40:13;;;;;;;27.83;23.50;;;;;;;10.00;100.00;100975.84;5032464;28;20300;-76
2024/02/03 01:42:39;;;;;;;29.67;24.03;;;;;;;9.94;100.00;100981.97;5031955;28;20248;-77
2024/02/03 01:45:06;;;;;;;27.33;23.10;;;;;;;9.86;100.00;100975.94;5032228;28;20198;-78
2024/02/03 01:47:33;;;;;;;29.13;23.80;;;;;;;9.91;100.00;100975.91;5032512;28;20274;-77
2024/02/03 01:50:00;;;;;;;25.67;23.03;;;;;;;10.03;100.00;100978.44;5032702;28;20198;-77
2024/02/03 01:52:26;;;;;;;28.47;25.00;;;;;;;10.07;100.00;100974.91;5032413;28;20246;-77
2024/02/03 01:54:53;;;;;;;26.13;23.33;;;;;;;10.09;100.00;100994.03;5032442;28;20719;-77
2024/02/03 01:57:23;;;;;;;29.63;24.60;;;;;;;10.13;100.00;100997.50;5032997;28;20276;-77
2024/02/03 01:59:49;;;;;;;31.87;24.37;;;;;;;9.87;100.00;100976.78;5032898;28;20249;-77
2024/02/03 02:02:16;;;;;;;28.97;23.67;;;;;;;10.01;100.00;100982.78;5031596;28;20226;-77
2024/02/03 02:04:42;;;;;;;28.67;23.03;;;;;;;9.89;100.00;100981.16;5032870;28;20727;-77
2024/02/03 02:07:08;;;;;;;32.30;26.03;;;;;;;9.92;100.00;100955.03;5032657;28;20245;-76
2024/02/03 02:09:35;;;;;;;30.67;25.23;;;;;;;9.80;100.00;100949.06;5032145;28;20291;-76
2024/02/03 02:12:01;;;;;;;29.90;24.63;;;;;;;9.91;100.00;100944.59;5036404;28;20203;-77
2024/02/03 02:14:29;;;;;;;40.17;25.87;;;;;;;10.02;100.00;100947.13;5013083;28;20242;-77
2024/02/03 02:16:57;;;;;;;29.07;23.93;;;;;;;10.17;100.00;100953.94;5011998;28;20234;-77
2024/02/03 02:19:23;;;;;;;30.13;24.37;;;;;;;10.12;100.00;100974.88;5036612;28;20288;-76
2024/02/03 02:21:51;;;;;;;26.30;22.83;;;;;;;10.20;100.00;100988.72;5013449;28;20208;-77
2024/02/03 02:24:18;;;;;;;29.53;23.47;;;;;;;9.89;100.00;100999.41;5012900;28;20446;-77
2024/02/03 02:26:44;;;;;;;27.13;24.17;;;;;;;10.03;100.00;100983.66;5030932;28;20598;-77
2024/02/03 02:29:10;;;;;;;25.47;22.80;;;;;;;9.93;100.00;100976.78;5032738;28;20730;-78
2024/02/03 02:31:37;;;;;;;25.60;23.00;;;;;;;10.07;100.00;100974.91;5031870;28;20245;-77
2024/02/03 02:34:03;;;;;;;26.67;23.83;;;;;;;9.94;100.00;100966.31;5032319;28;20202;-77
2024/02/03 02:36:29;;;;;;;30.23;25.10;;;;;;;10.06;100.00;100970.56;5032056;28;20234;-77
2024/02/03 02:38:57;;;;;;;30.60;24.60;;;;;;;10.07;100.00;100980.13;5023567;28;20574;-77
2024/02/03 02:41:23;;;;;;;25.27;22.53;;;;;;;9.82;100.00;100971.63;5032192;28;20233;-76
2024/02/03 02:43:50;;;;;;;28.40;23.47;;;;;;;10.03;100.00;100948.84;5032340;28;20211;-77
2024/02/03 02:46:21;;;;;;;30.13;24.07;;;;;;;9.96;100.00;100941.97;5037762;28;20245;-77
2024/02/03 02:48:48;;;;;;;27.67;24.23;;;;;;;10.07;100.00;100935.78;5031639;28;20214;-77
2024/02/03 02:51:14;;;;;;;30.53;25.03;;;;;;;10.06;100.00;100941.00;5032036;28;20268;-77
2024/02/03 02:53:40;;;;;;;30.43;25.33;;;;;;;9.94;100.00;100911.53;5031308;28;20742;-77
2024/02/03 02:56:08;;;;;;;30.43;24.50;;;;;;;9.84;100.00;100893.41;5031454;28;20258;-77
2024/02/03 02:58:34;;;;;;;34.63;26.20;;;;;;;9.86;100.00;100887.28;5037246;28;20829;-77
2024/02/03 03:01:01;;;;;;;31.73;26.33;;;;;;;9.79;100.00;100869.97;5038529;28;20206;-77
2024/02/03 03:03:27;;;;;;;34.50;26.13;;;;;;;9.72;100.00;100837.88;5038260;28;20252;-77
2024/02/03 03:05:53;;;;;;;35.73;26.87;;;;;;;9.70;100.00;100823.13;5038506;28;20218;-77
2024/02/03 03:08:22;;;;;;;36.77;26.67;;;;;;;9.68;100.00;100793.63;5038269;28;20198;-77
2024/02/03 03:10:48;;;;;;;32.90;25.83;;;;;;;9.78;100.00;100795.25;5038398;28;20798;-77
2024/02/03 03:13:16;;;;;;;34.37;25.60;;;;;;;9.78;100.00;100795.25;5038395;28;20260;-77
2024/02/03 03:15:42;;;;;;;36.57;27.07;;;;;;;9.69;100.00;100775.34;5038343;28;20279;-77
2024/02/03 03:18:08;;;;;;;32.77;23.67;;;;;;;9.66;100.00;100777.13;5037820;28;20206;-77
2024/02/03 03:20:35;;;;;;;25.20;22.53;;;;;;;9.66;100.00;100774.53;5038548;28;20230;-77
2024/02/03 03:23:01;;;;;;;24.03;20.77;;;;;;;9.81;100.00;100770.88;5042824;28;20207;-77
2024/02/03 03:25:27;;;;;;;26.47;21.57;;;;;;;9.79;100.00;100776.13;5034392;28;20732;-77
2024/02/03 03:27:54;;;;;;;25.17;20.90;;;;;;;9.90;100.00;100774.25;5038209;28;20232;-77
2024/02/03 03:30:21;;;;;;;22.83;20.43;;;;;;;9.98;100.00;100770.72;5038455;28;20267;-77
2024/02/03 03:32:47;;;;;;;23.63;21.17;;;;;;;9.69;100.00;100771.88;5037324;28;20241;-77
2024/02/03 03:35:14;;;;;;;20.93;18.73;;;;;;;9.67;100.00;100763.19;5038144;28;20230;-77
2024/02/03 03:37:41;;;;;;;20.67;18.47;;;;;;;9.76;100.00;100750.06;5029595;28;20682;-77
2024/02/03 03:40:08;;;;;;;19.07;17.17;;;;;;;9.61;100.00;100758.03;5038152;28;20205;-77
2024/02/03 03:42:34;;;;;;;19.87;17.47;;;;;;;9.69;100.00;100753.63;5037561;28;20244;-77
2024/02/03 03:45:00;;;;;;;21.97;17.40;;;;;;;9.65;100.00;100731.06;5037866;28;20202;-77
2024/02/03 03:47:30;;;;;;;18.50;16.60;;;;;;;9.79;100.00;100733.53;5037845;28;20255;-77
2024/02/03 03:49:56;;;;;;;19.97;16.97;;;;;;;9.78;100.00;100745.72;5038705;28;20198;-77
2024/02/03 03:52:22;;;;;;;17.10;15.50;;;;;;;9.76;100.00;100755.28;5037862;28;20255;-77
2024/02/03 03:54:49;;;;;;;17.57;15.97;;;;;;;9.66;100.00;100744.09;5038498;28;20206;-77
2024/02/03 03:57:15;;;;;;;18.33;16.47;;;;;;;9.82;100.00;100728.28;5043499;28;20264;-77
2024/02/03 03:59:41;;;;;;;16.07;14.57;;;;;;;9.63;100.00;100740.66;5022926;28;20257;-77
2024/02/03 04:02:08;;;;;;;19.87;15.80;;;;;;;9.82;100.00;100730.91;5033724;28;20202;-77
2024/02/03 04:04:37;;;;;;;18.20;16.00;;;;;;;9.83;100.00;100737.81;5018452;28;20779;-77
2024/02/03 04:07:04;;;;;;;15.60;14.10;;;;;;;9.77;100.00;100746.56;5030507;28;20214;-77
2024/02/03 04:09:30;;;;;;;15.73;14.23;;;;;;;9.90;100.00;100749.94;5034096;28;20279;-77
2024/02/03 04:11:56;;;;;;;16.73;14.93;;;;;;;9.77;100.00;100758.75;5034996;28;20259;-78
2024/02/03 04:14:23;;;;;;;14.03;12.70;;;;;;;9.71;100.00;100750.13;5034726;28;20232;-77
2024/02/03 04:16:49;;;;;;;14.27;12.87;;;;;;;9.80;100.00;100753.53;5033424;28;20262;-77
2024/02/03 04:19:15;;;;;;;14.40;13.10;;;;;;;9.73;100.00;100739.66;5034715;28;20256;-77
2024/02/03 04:21:43;;;;;;;14.70;13.20;;;;;;;9.92;100.00;100751.63;5034545;28;20206;-77
2024/02/03 04:24:09;;;;;;;12.07;10.97;;;;;;;9.83;100.00;100750.88;5034399;28;20230;-77
2024/02/03 04:26:36;;;;;;;12.40;11.20;;;;;;;9.99;100.00;100760.25;5034421;28;20253;-77
2024/02/03 04:29:02;;;;;;;11.40;10.30;;;;;;;9.78;100.00;100750.94;5034516;28;20229;-77
2024/02/03 04:31:28;;;;;;;11.90;10.70;;;;;;;9.88;100.00;100751.69;5034387;28;20214;-77
2024/02/03 04:33:55;;;;;;;11.00;10.00;;;;;;;9.87;100.00;100749.94;5034210;28;20238;-77
2024/02/03 04:36:21;;;;;;;11.03;9.93;;;;;;;9.89;100.00;100761.22;5039003;28;20230;-77
2024/02/03 04:38:49;;;;;;;11.60;10.50;;;;;;;9.90;100.00;100752.53;5034032;28;20206;-77
2024/02/03 04:41:23;;;;;;;10.70;9.70;;;;;;;9.80;100.00;100749.16;5034032;28;20673;-77
2024/02/03 04:43:49;;;;;;;11.47;10.37;;;;;;;9.76;100.00;100746.63;5041160;28;20205;-77
2024/02/03 04:46:15;;;;;;;11.67;10.23;;;;;;;9.88;100.00;100747.34;5014235;28;20242;-77
2024/02/03 04:48:43;;;;;;;10.73;9.73;;;;;;;9.81;100.00;100736.97;5014353;28;20246;-77
2024/02/03 04:51:09;;;;;;;11.07;9.97;;;;;;;9.64;100.00;100734.56;5014617;28;20214;-77
2024/02/03 04:53:35;;;;;;;12.13;11.03;;;;;;;9.59;100.00;100712.91;5014017;28;20250;-77
2024/02/03 04:56:03;;;;;;;10.07;9.17;;;;;;;9.66;100.00;100702.38;5025532;28;20222;-78
2024/02/03 04:58:30;;;;;;;10.60;9.60;;;;;;;9.62;100.00;100707.66;5034283;28;20206;-78
2024/02/03 05:00:57;;;;;;;11.47;10.37;;;;;;;9.50;100.00;100682.59;5033741;28;20639;-77
2024/02/03 05:03:23;;;;;;;11.20;10.10;;;;;;;9.67;100.00;100679.78;5033849;28;20210;-77
2024/02/03 05:05:49;;;;;;;12.20;10.63;;;;;;;9.70;100.00;100670.19;5033566;28;20276;-77
2024/02/03 05:08:16;;;;;;;11.00;9.93;;;;;;;9.68;100.00;100674.56;5033334;28;20198;-77
2024/02/03 05:10:42;;;;;;;11.40;10.30;;;;;;;9.50;100.00;100680.84;5038894;28;20252;-76
2024/02/03 05:13:10;;;;;;;10.50;9.60;;;;;;;9.80;100.00;100678.78;5043823;28;20268;-76
2024/02/03 05:15:36;;;;;;;11.03;9.93;;;;;;;9.66;100.00;100680.69;5042281;28;20234;-77
2024/02/03 05:18:03;;;;;;;10.57;9.57;;;;;;;9.64;100.00;100677.22;5042797;28;20226;-77
2024/02/03 05:20:29;;;;;;;9.97;9.07;;;;;;;9.53;100.00;100672.13;5041616;28;20233;-77
2024/02/03 05:22:55;;;;;;;10.13;9.10;;;;;;;9.47;100.00;100667.84;5041665;28;20213;-77
2024/02/03 05:25:22;;;;;;;9.77;8.77;;;;;;;9.71;100.00;100666.72;5043830;28;20652;-76
2024/02/03 05:27:48;;;;;;;8.80;7.93;;;;;;;9.78;100.00;100679.69;5036720;28;20751;-77
2024/02/03 05:30:16;;;;;;;9.47;8.60;;;;;;;9.83;100.00;100676.16;5033563;28;20256;-77
2024/02/03 05:32:42;;;;;;;9.17;8.20;;;;;;;9.86;100.00;100696.09;5032966;28;20202;-77
2024/02/03 05:35:09;;;;;;;10.67;8.53;;;;;;;9.78;100.00;100693.56;5033568;28;20206;-77
2024/02/03 05:37:35;;;;;;;9.40;8.50;;;;;;;9.77;100.00;100686.63;5033174;28;20623;-77
2024/02/03 05:40:03;;;;;;;9.87;8.93;;;;;;;9.57;100.00;100665.13;5032361;28;20292;-77
2024/02/03 05:42:30;;;;;;;9.37;8.37;;;;;;;9.76;100.00;100647.56;5032525;28;20213;-77
2024/02/03 05:44:57;;;;;;;9.73;8.83;;;;;;;9.60;100.00;100654.69;5032429;28;20206;-76
2024/02/03 05:47:25;;;;;;;9.63;8.53;;;;;;;9.68;100.00;100647.66;5031691;28;20658;-77
2024/02/03 05:49:52;;;;;;;8.00;7.30;;;;;;;9.79;100.00;100644.91;5032318;28;20236;-77
2024/02/03 05:52:18;;;;;;;7.23;6.53;;;;;;;9.67;100.00;100659.81;5031978;28;20257;-76
2024/02/03 05:54:45;;;;;;;7.73;7.03;;;;;;;9.86;100.00;100654.38;5031649;28;20694;-77
2024/02/03 05:57:12;;;;;;;6.90;6.20;;;;;;;9.60;100.00;100668.59;5032332;28;20321;-77
2024/02/03 05:59:38;;;;;;;8.03;7.03;;;;;;;9.77;100.00;100670.13;5039814;28;20201;-77
2024/02/03 06:02:04;;;;;;;7.53;6.73;;;;;;;9.69;100.00;100665.00;5012759;28;20250;-77
2024/02/03 06:04:32;;;;;;;7.13;6.53;;;;;;;9.71;100.00;100666.72;5012411;28;20681;-77
2024/02/03 06:06:58;;;;;;;7.13;6.43;;;;;;;9.77;100.00;100673.59;5019254;28;20272;-77
2024/02/03 06:09:25;;;;;;;6.50;5.90;;;;;;;9.76;100.00;100673.63;5031459;28;20237;-77
2024/02/03 06:11:52;;;;;;;5.67;5.17;;;;;;;9.62;100.00;100676.38;5031880;28;20214;-77
2024/02/03 06:14:18;;;;;;;6.73;6.13;;;;;;;9.58;100.00;100670.34;5032035;28;20244;-76
2024/02/03 06:16:44;;;;;;;5.73;5.23;;;;;;;9.57;100.00;100663.38;5030813;28;20319;-76
2024/02/03 06:19:11;;;;;;;6.23;5.63;;;;;;;9.66;100.00;100654.63;5023884;28;20230;-76
2024/02/03 06:21:38;;;;;;;6.20;5.53;;;;;;;9.75;100.00;100667.53;5031478;28;20292;-76
2024/02/03 06:24:05;;;;;;;5.20;4.70;;;;;;;9.81;100.00;100688.34;5031601;28;20325;-76
2024/02/03 06:26:32;;;;;;;5.43;5.03;;;;;;;9.56;100.00;100684.28;5031498;28;20258;-77
2024/02/03 06:28:58;;;;;;;5.23;4.73;;;;;;;9.52;100.00;100681.69;5031853;28;20206;-77
2024/02/03 06:31:25;;;;;;;4.63;4.23;;;;;;;9.73;100.00;100677.09;5031400;28;20206;-77
2024/02/03 06:33:51;;;;;;;5.20;4.80;;;;;;;9.76;100.00;100681.44;5030535;28;20307;-76
2024/02/03 06:36:17;;;;;;;6.63;6.03;;;;;;;9.62;100.00;100676.38;5031291;28;20249;-77
2024/02/03 06:38:45;;;;;;;5.83;5.33;;;;;;;9.66;100.00;100678.06;5031340;28;20256;-77
2024/02/03 06:41:14;;;;;;;6.23;5.73;;;;;;;9.64;100.00;100667.66;5031356;28;20246;-76
2024/02/03 06:43:41;;;;;;;4.97;4.57;;;;;;;9.71;100.00;100682.38;5031259;28;20210;-77
2024/02/03 06:46:08;;;;;;;5.67;5.17;;;;;;;9.71;100.00;100694.50;5031250;28;20931;-76
2024/02/03 06:48:34;;;;;;;4.80;4.40;;;;;;;9.52;100.00;100697.31;5030833;28;20726;-77
2024/02/03 06:51:00;;;;;;;5.17;4.77;;;;;;;9.81;100.00;100696.16;5031178;28;20295;-77
2024/02/03 06:53:27;;;;;;;5.13;4.73;;;;;;;9.85;100.00;100702.16;5031137;28;20677;-76
2024/02/03 06:55:56;;;;;;;4.70;4.30;;;;;;;9.77;100.00;100704.00;5031190;28;20226;-77
2024/02/03 06:58:22;;;;;;;4.77;4.37;;;;;;;9.71;100.00;100702.34;5031206;28;20654;-76
2024/02/03 07:00:49;;;;;;;4.77;4.37;;;;;;;9.77;100.00;100696.19;5030805;28;20673;-76
2024/02/03 07:03:16;;;;;;;4.60;4.20;;;;;;;9.72;100.00;100693.66;5030960;28;20385;-76
2024/02/03 07:05:42;;;;;;;5.33;4.83;;;;;;;9.74;100.00;100692.75;5031527;28;20335;-76
2024/02/03 07:08:08;;;;;;;4.87;4.47;;;;;;;9.81;100.00;100687.44;5030881;28;20234;-77
2024/02/03 07:10:35;;;;;;;5.63;5.13;;;;;;;9.66;100.00;100701.53;5031162;28;20591;-76
2024/02/03 07:13:02;;;;;;;5.80;5.30;;;;;;;9.85;100.00;100700.44;5030808;28;20261;-76
2024/02/03 07:15:29;;;;;;;4.80;4.27;;;;;;;9.84;100.00;100713.50;5034125;28;20269;-77
2024/02/03 07:17:55;;;;;;;5.37;4.97;;;;;;;9.80;100.00;100704.00;5010496;28;20223;-76
2024/02/03 07:20:21;;;;;;;4.90;4.50;;;;;;;9.87;100.00;100695.19;5011739;28;20296;-77
2024/02/03 07:22:48;;;;;;;5.67;5.23;;;;;;;9.79;100.00;100695.31;5027318;28;20233;-77
2024/02/03 07:25:14;;;;;;;5.27;4.77;;;;;;;9.82;100.00;100679.63;5031363;28;20225;-77
2024/02/03 07:27:41;;;;;;;5.30;4.90;;;;;;;9.98;100.00;100700.28;5031386;28;20248;-77
2024/02/03 07:30:10;;;;;;;5.83;5.33;;;;;;;10.06;100.00;100716.72;5033306;28;20222;-77
2024/02/03 07:32:36;;;;;;;5.43;5.03;;;;;;;10.10;100.00;100721.00;5021340;28;20261;-76
2024/02/03 07:35:03;;;;;;;4.80;4.40;;;;;;;9.82;100.00;100739.59;5012125;28;20728;-76
2024/02/03 07:37:32;;;;;;;4.77;4.30;;;;;;;9.93;100.00;100724.69;5020944;28;20226;-76
2024/02/03 07:39:58;;;;;;;4.53;4.23;;;;;;;9.85;100.00;100716.09;5030904;28;20234;-76
2024/02/03 07:42:24;;;;;;;5.07;4.57;;;;;;;9.87;100.00;100703.91;5030619;28;20248;-76
2024/02/03 07:44:51;;;;;;;4.90;4.50;;;;;;;9.99;100.00;100709.84;5033917;28;20287;-76
2024/02/03 07:47:19;;;;;;;5.87;5.37;;;;;;;10.02;100.00;100715.88;5034027;28;20225;-76
2024/02/03 07:49:45;;;;;;;5.37;4.87;;;;;;;9.95;100.00;100732.50;5035063;28;20210;-76
2024/02/03 07:52:11;;;;;;;5.60;5.20;;;;;;;9.87;100.00;100737.81;5034463;28;20234;-76
2024/02/03 07:54:40;;;;;;;5.37;4.87;;;;;;;9.83;100.00;100735.22;5034671;28;20210;-77
2024/02/03 07:57:06;;;;;;;6.33;5.70;;;;;;;9.78;100.00;100727.47;5034011;28;20819;-76
2024/02/03 07:59:33;;;;;;;5.43;4.70;;;;;;;9.99;100.00;100731.59;5034426;28;20245;-76
2024/02/03 08:01:59;;;;;;;5.17;4.77;;;;;;;9.93;100.00;100729.91;5033848;28;20233;-77
2024/02/03 08:04:27;;;;;;;5.67;5.17;;;;;;;9.97;100.00;100735.06;5034524;28;20206;-77
2024/02/03 08:06:53;;;;;;;5.67;5.27;;;;;;;9.98;100.00;100731.59;5034081;28;20716;-76
2024/02/03 08:09:19;;;;;;;5.50;5.00;;;;;;;10.15;100.00;100729.66;5033796;28;20257;-76
2024/02/03 08:11:46;;;;;;;5.73;5.23;;;;;;;10.03;100.00;100729.78;5034046;28;20264;-77
2024/02/03 08:14:12;;;;;;;5.10;4.70;;;;;;;10.08;100.00;100734.06;5034210;28;20242;-77
2024/02/03 08:16:38;;;;;;;5.20;4.80;;;;;;;9.97;100.00;100737.66;5033265;28;20372;-77
2024/02/03 08:19:05;;;;;;;5.27;4.87;;;;;;;10.22;100.00;100743.47;5034324;28;20221;-76
2024/02/03 08:21:32;;;;;;;5.23;4.83;;;;;;;10.08;100.00;100762.75;5034972;28;20206;-77
2024/02/03 08:24:01;;;;;;;4.80;4.40;;;;;;;10.24;100.00;100770.41;5033924;28;20210;-78
2024/02/03 08:26:27;;;;;;;4.53;4.13;;;;;;;10.22;100.00;100783.44;5029245;28;20773;-77
2024/02/03 08:28:54;;;;;;;4.07;3.73;;;;;;;10.24;100.00;100799.09;5033950;28;20238;-76
2024/02/03 08:31:20;;;;;;;4.40;4.00;;;;;;;10.21;100.00;100793.91;5025439;28;20202;-76
2024/02/03 08:33:46;;;;;;;4.50;4.10;;;;;;;10.24;100.00;100788.66;5033581;28;20233;-76
2024/02/03 08:36:13;;;;;;;4.13;3.83;;;;;;;10.37;100.00;100810.31;5033626;28;20230;-77
2024/02/03 08:38:40;;;;;;;4.97;4.57;;;;;;;10.27;100.00;100819.94;5033343;28;20261;-77
2024/02/03 08:41:09;;;;;;;6.00;5.53;;;;;;;10.19;100.00;100804.38;5033331;28;20592;-76
2024/02/03 08:43:35;;;;;;;5.97;5.47;;;;;;;10.14;100.00;100803.56;5034160;28;20661;-76
2024/02/03 08:46:02;;;;;;;6.90;6.33;;;;;;;9.97;100.00;100782.00;5033357;28;20317;-76
2024/02/03 08:48:28;;;;;;;6.17;5.70;;;;;;;10.10;100.00;100766.19;5026196;28;20218;-77
2024/02/03 08:50:54;;;;;;;3.37;3.07;;;;;;;10.10;100.00;100765.34;5026764;28;20231;-77
2024/02/03 08:53:21;;;;;;;2.80;2.60;;;;;;;10.24;100.00;100757.34;5027639;28;20198;-76
2024/02/03 08:55:49;;;;;;;2.53;2.33;;;;;;;10.28;100.00;100762.50;5023751;28;20245;-76
2024/02/03 08:58:15;;;;;;;3.10;2.90;;;;;;;10.29;100.00;100773.81;5027175;28;20227;-77
2024/02/03 09:00:41;;;;;;;3.13;2.80;;;;;;;10.07;100.00;100794.09;5033354;28;20202;-76
2024/02/03 09:03:08;;;;;;;2.87;2.63;;;;;;;10.23;100.00;100774.75;5031983;28;20305;-76
2024/02/03 09:05:34;;;;;;;3.50;3.20;;;;;;;10.19;100.00;100754.81;5026961;28;20222;-75
2024/02/03 09:08:00;;;;;;;3.73;3.43;;;;;;;10.26;100.00;100751.22;5033009;28;20309;-76
2024/02/03 09:10:27;;;;;;;3.30;3.00;;;;;;;10.23;100.00;100742.59;5032851;28;20242;-77
2024/02/03 09:12:54;;;;;;;3.50;3.20;;;;;;;10.40;100.00;100734.56;5032748;28;20203;-75
2024/02/03 09:15:21;;;;;;;2.43;2.23;;;;;;;10.30;100.00;100755.56;5018752;28;20276;-75
2024/02/03 09:17:49;;;;;;;2.90;2.70;;;;;;;10.48;100.00;100751.84;5015844;28;20269;-75
2024/02/03 09:20:16;;;;;;;3.63;3.33;;;;;;;10.18;100.00;100783.53;5022926;28;20233;-75
2024/02/03 09:22:43;;;;;;;3.67;3.37;;;;;;;10.20;100.00;100769.56;5023104;28;20744;-75
2024/02/03 09:25:10;;;;;;;3.87;3.57;;;;;;;10.32;100.00;100766.84;5023999;28;20198;-74
2024/02/03 09:27:36;;;;;;;3.87;3.53;;;;;;;9.99;100.00;100755.06;5025028;28;20195;-75
2024/02/03 09:30:05;;;;;;;3.97;3.63;;;;;;;10.01;100.00;100728.94;5024635;28;20237;-76
2024/02/03 09:32:31;;;;;;;4.37;4.03;;;;;;;10.14;100.00;100730.50;5026546;28;20356;-76
2024/02/03 09:34:58;;;;;;;4.07;3.67;;;;;;;10.04;100.00;100727.16;5024335;28;20788;-76
2024/02/03 09:37:24;;;;;;;4.37;3.97;;;;;;;10.13;100.00;100726.19;5026390;28;20716;-77
2024/02/03 09:39:50;;;;;;;4.20;3.80;;;;;;;9.89;100.00;100728.22;5024007;28;20207;-76
2024/02/03 09:42:17;;;;;;;4.53;4.13;;;;;;;10.10;100.00;100724.47;5024913;28;20206;-76
2024/02/03 09:44:44;;;;;;;4.67;4.27;;;;;;;10.11;100.00;100726.22;5024070;28;20210;-77
2024/02/03 09:47:14;;;;;;;5.10;4.70;;;;;;;10.17;100.00;100730.50;5027292;28;20250;-76
2024/02/03 09:49:40;;;;;;;5.27;4.87;;;;;;;10.33;100.00;100718.13;5027636;28;20660;-76
2024/02/03 09:52:14;;;;;;;4.50;4.20;;;;;;;10.40;100.00;100739.78;5026500;28;20252;-77
2024/02/03 09:54:44;;;;;;;4.43;4.03;;;;;;;10.35;100.00;100742.47;5032859;28;20206;-77
2024/02/03 09:57:11;;;;;;;4.90;4.50;;;;;;;10.16;100.00;100744.41;5031002;28;20739;-76
2024/02/03 09:59:37;;;;;;;4.53;4.23;;;;;;;10.30;100.00;100741.66;5025366;28;20225;-77
2024/02/03 10:02:04;;;;;;;4.60;4.20;;;;;;;10.26;100.00;100739.94;5025303;28;20275;-76
2024/02/03 10:04:38;;;;;;;4.53;4.17;;;;;;;10.10;100.00;100744.47;5023738;28;20726;-76
2024/02/03 10:07:05;;;;;;;6.37;5.03;;;;;;;10.29;100.00;100724.25;5031530;28;20236;-77
2024/02/03 10:09:32;;;;;;;4.83;4.53;;;;;;;10.31;100.00;100733.81;5029569;28;20198;-77
2024/02/03 10:11:58;;;;;;;5.43;5.00;;;;;;;10.33;100.00;100745.09;5032327;28;20624;-76
2024/02/03 10:14:25;;;;;;;4.67;4.27;;;;;;;10.40;100.00;100751.06;5033450;28;20583;-77
2024/02/03 10:16:52;;;;;;;5.20;4.80;;;;;;;10.39;100.00;100775.47;5032659;28;20233;-76
2024/02/03 10:19:20;;;;;;;4.03;3.73;;;;;;;10.48;100.00;100759.66;5026377;28;20255;-77
2024/02/03 10:21:48;;;;;;;3.93;3.47;;;;;;;10.46;100.00;100751.00;5024158;28;20249;-77
2024/02/03 10:24:20;;;;;;;4.17;3.80;;;;;;;10.60;100.00;100740.38;5028796;28;20681;-78
2024/02/03 10:26:57;;;;;;;3.77;3.47;;;;;;;10.63;100.00;100761.22;5030179;28;20226;-77
2024/02/03 10:29:23;;;;;;;3.70;3.50;;;;;;;10.71;100.00;100761.13;5031184;28;20201;-77
2024/02/03 10:31:50;;;;;;;4.23;3.93;;;;;;;10.46;100.00;100766.66;5023177;28;20234;-77
2024/02/03 10:34:17;;;;;;;3.47;3.27;;;;;;;10.62;100.00;100776.91;5028121;28;20198;-78
2024/02/03 10:36:43;;;;;;;3.93;3.63;;;;;;;10.32;100.00;100750.31;5026227;28;20814;-78
2024/02/03 10:39:11;;;;;;;4.10;3.80;;;;;;;10.37;100.00;100747.66;5027300;28;20291;-78
2024/02/03 10:41:40;;;;;;;3.73;3.40;;;;;;;10.22;100.00;100733.88;5023391;28;20206;-77
2024/02/03 10:44:08;;;;;;;5.93;5.53;;;;;;;10.33;100.00;100739.88;5027782;28;20227;-77
2024/02/03 10:46:38;;;;;;;3.97;3.67;;;;;;;10.29;100.00;100732.09;5024790;28;20222;-77
2024/02/03 10:49:10;;;;;;;2.67;2.47;;;;;;;10.34;100.00;100730.28;5024690;28;20258;-77
2024/02/03 10:51:37;;;;;;;3.50;3.30;;;;;;;10.18;100.00;100732.19;5022393;28;20226;-77
2024/02/03 10:54:08;;;;;;;7.37;6.77;;;;;;;10.32;100.00;100729.44;5022146;28;20599;-76
2024/02/03 10:56:38;;;;;;;4.33;4.03;;;;;;;10.58;100.00;100744.75;5019458;28;20230;-77
2024/02/03 10:59:05;;;;;;;3.43;3.23;;;;;;;10.58;100.00;100756.94;5024464;28;20226;-76
2024/02/03 11:01:34;;;;;;;3.70;3.40;;;;;;;10.66;100.00;100775.97;5023943;28;20202;-78
2024/02/03 11:04:01;;;;;;;3.53;2.90;;;;;;;10.70;100.00;100802.03;5031025;28;20251;-77
2024/02/03 11:06:28;;;;;;;2.73;2.53;;;;;;;10.65;100.00;100824.72;5029452;28;20960;-77
2024/02/03 11:09:10;;;;;;;3.57;3.37;;;;;;;10.60;100.00;100833.47;5030156;28;20206;-77
2024/02/03 11:11:38;;;;;;;3.57;3.27;;;;;;;10.62;100.00;100829.97;5026479;28;20210;-77
2024/02/03 11:14:05;;;;;;;4.33;3.50;;;;;;;10.85;100.00;100840.13;5026737;28;20919;-77